Yuba, Wisconsin
Current Conditions -  °F | °C
As of 12:15 AM on Saturday 25 Oct 2014 (Local Time) from KC35 Reporting Station
Haze Haze  
Wind Chill: 57°   Ceiling: 1000
Heat Index: 57°   Visibility: 5mi
Dew Point: 55°   Wind: 9mph
Humidity: 94%   Direction: 260°W
Pressure: 29.89"   Gusts: NA
Location:  43.6121°N, 90.3998°W
Report Text: KC35 250515Z AUTO 26008KT 5SM BR OVC010 14/13 A2989 RMK AO2 T01400130
Loading
Personal Weather Stations






























Interactive Weather Map
Tropical Storm Tracking
New forecast layout! Learn more

10-Day Weather Forecast

Advertisements
Track Severe Weather on mobile